sensor_id;sensor_type;location;lat;lon;timestamp;temperature;humidity
3416;DHT22;1721;51.238;9.562;2022-12-13T00:02:03;-3.10;80.70
3416;DHT22;1721;51.238;9.562;2022-12-13T00:04:28;-3.10;79.50
3416;DHT22;1721;51.238;9.562;2022-12-13T00:06:54;-3.20;78.40
3416;DHT22;1721;51.238;9.562;2022-12-13T00:09:20;-3.20;77.90
3416;DHT22;1721;51.238;9.562;2022-12-13T00:11:47;-3.20;77.30
3416;DHT22;1721;51.238;9.562;2022-12-13T00:14:12;-3.30;77.00
3416;DHT22;1721;51.238;9.562;2022-12-13T00:16:38;-3.30;77.10
3416;DHT22;1721;51.238;9.562;2022-12-13T00:19:04;-3.60;77.60
3416;DHT22;1721;51.238;9.562;2022-12-13T00:21:31;-3.70;78.40
3416;DHT22;1721;51.238;9.562;2022-12-13T00:23:58;-3.60;78.50
3416;DHT22;1721;51.238;9.562;2022-12-13T00:26:27;-3.70;77.90
3416;DHT22;1721;51.238;9.562;2022-12-13T00:28:53;-3.70;77.40
3416;DHT22;1721;51.238;9.562;2022-12-13T00:31:21;-3.70;76.60
3416;DHT22;1721;51.238;9.562;2022-12-13T00:33:48;-3.80;76.20
3416;DHT22;1721;51.238;9.562;2022-12-13T00:36:14;-3.80;75.90
3416;DHT22;1721;51.238;9.562;2022-12-13T00:38:40;-3.80;75.80
3416;DHT22;1721;51.238;9.562;2022-12-13T00:41:14;-3.80;75.60
3416;DHT22;1721;51.238;9.562;2022-12-13T00:43:40;-3.90;75.30
3416;DHT22;1721;51.238;9.562;2022-12-13T00:46:14;-3.90;75.10
3416;DHT22;1721;51.238;9.562;2022-12-13T00:48:40;-3.90;74.90
3416;DHT22;1721;51.238;9.562;2022-12-13T00:51:07;-3.90;74.50
3416;DHT22;1721;51.238;9.562;2022-12-13T00:53:33;-4.00;74.50
3416;DHT22;1721;51.238;9.562;2022-12-13T00:56:00;-4.10;74.40
3416;DHT22;1721;51.238;9.562;2022-12-13T00:58:25;-4.10;74.50
3416;DHT22;1721;51.238;9.562;2022-12-13T01:00:51;-4.10;74.40
3416;DHT22;1721;51.238;9.562;2022-12-13T01:03:16;-4.30;74.10
3416;DHT22;1721;51.238;9.562;2022-12-13T01:05:46;-4.40;74.50
3416;DHT22;1721;51.238;9.562;2022-12-13T01:08:12;-4.40;74.50
3416;DHT22;1721;51.238;9.562;2022-12-13T01:10:44;-4.30;74.60
3416;DHT22;1721;51.238;9.562;2022-12-13T01:13:11;-4.30;74.30
3416;DHT22;1721;51.238;9.562;2022-12-13T01:15:41;-4.30;74.10
3416;DHT22;1721;51.238;9.562;2022-12-13T01:18:07;-4.20;74.20
3416;DHT22;1721;51.238;9.562;2022-12-13T01:20:33;-4.20;73.90
3416;DHT22;1721;51.238;9.562;2022-12-13T01:22:59;-4.20;73.90
3416;DHT22;1721;51.238;9.562;2022-12-13T01:25:24;-4.30;73.50
3416;DHT22;1721;51.238;9.562;2022-12-13T01:27:50;-4.20;73.70
3416;DHT22;1721;51.238;9.562;2022-12-13T01:30:15;-4.20;73.50
3416;DHT22;1721;51.238;9.562;2022-12-13T01:32:41;-4.20;73.30
3416;DHT22;1721;51.238;9.562;2022-12-13T01:35:07;-4.30;73.20
3416;DHT22;1721;51.238;9.562;2022-12-13T01:37:33;-4.30;73.10
3416;DHT22;1721;51.238;9.562;2022-12-13T01:40:02;-4.30;73.20
3416;DHT22;1721;51.238;9.562;2022-12-13T01:42:28;-4.40;73.10
3416;DHT22;1721;51.238;9.562;2022-12-13T01:45:14;-4.40;73.00
3416;DHT22;1721;51.238;9.562;2022-12-13T01:47:50;-4.40;73.10
3416;DHT22;1721;51.238;9.562;2022-12-13T01:50:22;-4.40;73.30
3416;DHT22;1721;51.238;9.562;2022-12-13T01:52:49;-4.40;73.30
3416;DHT22;1721;51.238;9.562;2022-12-13T01:55:17;-4.40;72.90
3416;DHT22;1721;51.238;9.562;2022-12-13T01:57:45;-4.40;72.70
3416;DHT22;1721;51.238;9.562;2022-12-13T02:00:14;-4.50;72.70
3416;DHT22;1721;51.238;9.562;2022-12-13T02:02:40;-4.50;72.60
3416;DHT22;1721;51.238;9.562;2022-12-13T02:05:12;-4.50;72.60
3416;DHT22;1721;51.238;9.562;2022-12-13T02:07:41;-4.50;72.40
3416;DHT22;1721;51.238;9.562;2022-12-13T02:10:08;-4.50;72.60
3416;DHT22;1721;51.238;9.562;2022-12-13T02:12:36;-4.60;72.60
3416;DHT22;1721;51.238;9.562;2022-12-13T02:15:09;-4.60;72.70
3416;DHT22;1721;51.238;9.562;2022-12-13T02:20:52;-4.50;72.60
3416;DHT22;1721;51.238;9.562;2022-12-13T02:23:48;-4.60;72.50
3416;DHT22;1721;51.238;9.562;2022-12-13T02:26:32;-4.60;72.50
3416;DHT22;1721;51.238;9.562;2022-12-13T02:30:07;-4.70;72.10
3416;DHT22;1721;51.238;9.562;2022-12-13T02:32:36;-4.70;72.20
3416;DHT22;1721;51.238;9.562;2022-12-13T02:38:22;-4.70;72.30
3416;DHT22;1721;51.238;9.562;2022-12-13T02:40:57;-4.80;72.30
3416;DHT22;1721;51.238;9.562;2022-12-13T02:44:09;-4.80;72.30
3416;DHT22;1721;51.238;9.562;2022-12-13T02:46:19;-4.80;72.20
3416;DHT22;1721;51.238;9.562;2022-12-13T02:48:46;-4.80;72.20
3416;DHT22;1721;51.238;9.562;2022-12-13T02:51:13;-4.70;72.40
3416;DHT22;1721;51.238;9.562;2022-12-13T02:53:40;-4.70;72.30
3416;DHT22;1721;51.238;9.562;2022-12-13T02:56:07;-4.70;72.20
3416;DHT22;1721;51.238;9.562;2022-12-13T02:58:36;-4.70;72.00
3416;DHT22;1721;51.238;9.562;2022-12-13T03:09:24;-4.80;71.70
3416;DHT22;1721;51.238;9.562;2022-12-13T03:12:09;-4.90;71.60
3416;DHT22;1721;51.238;9.562;2022-12-13T03:15:14;-4.90;71.70
3416;DHT22;1721;51.238;9.562;2022-12-13T03:17:54;-4.90;71.70
3416;DHT22;1721;51.238;9.562;2022-12-13T03:20:25;-5.00;72.00
3416;DHT22;1721;51.238;9.562;2022-12-13T03:22:52;-5.00;72.30
3416;DHT22;1721;51.238;9.562;2022-12-13T03:25:19;-5.00;72.50
3416;DHT22;1721;51.238;9.562;2022-12-13T03:27:45;-5.00;72.80
3416;DHT22;1721;51.238;9.562;2022-12-13T03:30:11;-5.00;72.50
3416;DHT22;1721;51.238;9.562;2022-12-13T03:32:37;-4.90;72.50
3416;DHT22;1721;51.238;9.562;2022-12-13T03:35:03;-4.90;72.40
3416;DHT22;1721;51.238;9.562;2022-12-13T03:37:28;-5.10;72.80
3416;DHT22;1721;51.238;9.562;2022-12-13T03:39:54;-5.10;72.70
3416;DHT22;1721;51.238;9.562;2022-12-13T03:42:20;-5.00;72.80
3416;DHT22;1721;51.238;9.562;2022-12-13T03:44:46;-5.00;72.60
3416;DHT22;1721;51.238;9.562;2022-12-13T03:47:11;-4.90;72.50
3416;DHT22;1721;51.238;9.562;2022-12-13T03:49:37;-4.90;72.20
3416;DHT22;1721;51.238;9.562;2022-12-13T03:52:02;-4.90;72.70
3416;DHT22;1721;51.238;9.562;2022-12-13T03:54:28;-4.90;71.90
3416;DHT22;1721;51.238;9.562;2022-12-13T03:56:53;-4.90;71.70
3416;DHT22;1721;51.238;9.562;2022-12-13T03:59:19;-5.00;71.80
3416;DHT22;1721;51.238;9.562;2022-12-13T04:01:45;-5.00;72.00
3416;DHT22;1721;51.238;9.562;2022-12-13T04:04:10;-5.00;72.10
3416;DHT22;1721;51.238;9.562;2022-12-13T04:06:36;-5.00;72.00
3416;DHT22;1721;51.238;9.562;2022-12-13T04:09:01;-5.00;71.80
3416;DHT22;1721;51.238;9.562;2022-12-13T04:11:27;-4.90;71.70
3416;DHT22;1721;51.238;9.562;2022-12-13T04:14:11;-4.90;71.50
3416;DHT22;1721;51.238;9.562;2022-12-13T04:16:37;-5.00;71.50
3416;DHT22;1721;51.238;9.562;2022-12-13T04:19:02;-5.00;72.00
3416;DHT22;1721;51.238;9.562;2022-12-13T04:21:28;-5.00;72.10
3416;DHT22;1721;51.238;9.562;2022-12-13T04:23:53;-5.00;71.90
3416;DHT22;1721;51.238;9.562;2022-12-13T04:26:19;-5.00;71.90
3416;DHT22;1721;51.238;9.562;2022-12-13T04:28:45;-5.30;72.40
3416;DHT22;1721;51.238;9.562;2022-12-13T04:31:10;-5.20;73.10
3416;DHT22;1721;51.238;9.562;2022-12-13T04:33:36;-5.10;72.80
3416;DHT22;1721;51.238;9.562;2022-12-13T04:36:02;-5.10;72.40
3416;DHT22;1721;51.238;9.562;2022-12-13T04:38:28;-5.10;71.90
3416;DHT22;1721;51.238;9.562;2022-12-13T04:41:04;-5.10;71.50
3416;DHT22;1721;51.238;9.562;2022-12-13T04:43:29;-5.20;71.40
3416;DHT22;1721;51.238;9.562;2022-12-13T04:45:55;-5.40;71.40
3416;DHT22;1721;51.238;9.562;2022-12-13T04:48:20;-5.40;71.50
3416;DHT22;1721;51.238;9.562;2022-12-13T04:50:46;-5.40;71.60
3416;DHT22;1721;51.238;9.562;2022-12-13T04:53:13;-5.40;71.80
3416;DHT22;1721;51.238;9.562;2022-12-13T04:55:40;-5.50;71.90
3416;DHT22;1721;51.238;9.562;2022-12-13T04:58:06;-5.50;72.30
3416;DHT22;1721;51.238;9.562;2022-12-13T05:00:32;-5.50;72.40
3416;DHT22;1721;51.238;9.562;2022-12-13T05:02:57;-5.60;72.40
3416;DHT22;1721;51.238;9.562;2022-12-13T05:05:23;-5.60;72.50
3416;DHT22;1721;51.238;9.562;2022-12-13T05:07:49;-5.70;72.40
3416;DHT22;1721;51.238;9.562;2022-12-13T05:10:14;-5.70;72.60
3416;DHT22;1721;51.238;9.562;2022-12-13T05:12:40;-5.80;72.70
3416;DHT22;1721;51.238;9.562;2022-12-13T05:15:06;-5.80;72.80
3416;DHT22;1721;51.238;9.562;2022-12-13T05:17:32;-5.80;72.60
3416;DHT22;1721;51.238;9.562;2022-12-13T05:19:57;-5.80;72.80
3416;DHT22;1721;51.238;9.562;2022-12-13T05:22:23;-5.80;72.80
3416;DHT22;1721;51.238;9.562;2022-12-13T05:24:48;-5.70;72.90
3416;DHT22;1721;51.238;9.562;2022-12-13T05:27:14;-5.80;73.10
3416;DHT22;1721;51.238;9.562;2022-12-13T05:29:40;-5.80;73.00
3416;DHT22;1721;51.238;9.562;2022-12-13T05:32:05;-5.80;72.70
3416;DHT22;1721;51.238;9.562;2022-12-13T05:34:31;-5.80;72.70
3416;DHT22;1721;51.238;9.562;2022-12-13T05:36:56;-5.80;72.40
3416;DHT22;1721;51.238;9.562;2022-12-13T05:39:22;-5.80;72.20
3416;DHT22;1721;51.238;9.562;2022-12-13T05:41:47;-5.80;72.20
3416;DHT22;1721;51.238;9.562;2022-12-13T05:44:13;-5.80;72.20
3416;DHT22;1721;51.238;9.562;2022-12-13T05:46:39;-5.80;72.00
3416;DHT22;1721;51.238;9.562;2022-12-13T05:49:05;-5.90;72.40
3416;DHT22;1721;51.238;9.562;2022-12-13T05:51:31;-5.90;72.90
3416;DHT22;1721;51.238;9.562;2022-12-13T05:53:56;-6.00;73.30
3416;DHT22;1721;51.238;9.562;2022-12-13T05:56:22;-6.10;74.10
3416;DHT22;1721;51.238;9.562;2022-12-13T05:58:47;-6.10;75.10
3416;DHT22;1721;51.238;9.562;2022-12-13T06:01:14;-6.10;74.30
3416;DHT22;1721;51.238;9.562;2022-12-13T06:03:40;-6.10;74.90
3416;DHT22;1721;51.238;9.562;2022-12-13T06:06:08;-6.20;75.10
3416;DHT22;1721;51.238;9.562;2022-12-13T06:08:34;-6.00;75.00
3416;DHT22;1721;51.238;9.562;2022-12-13T06:11:02;-6.00;74.50
3416;DHT22;1721;51.238;9.562;2022-12-13T06:13:28;-5.90;74.50
3416;DHT22;1721;51.238;9.562;2022-12-13T06:15:54;-6.20;75.20
3416;DHT22;1721;51.238;9.562;2022-12-13T06:18:19;-6.30;75.20
3416;DHT22;1721;51.238;9.562;2022-12-13T06:20:54;-6.40;76.60
3416;DHT22;1721;51.238;9.562;2022-12-13T06:23:19;-6.20;76.20
3416;DHT22;1721;51.238;9.562;2022-12-13T06:25:45;-6.10;75.50
3416;DHT22;1721;51.238;9.562;2022-12-13T06:28:10;-6.00;75.20
3416;DHT22;1721;51.238;9.562;2022-12-13T06:30:36;-5.90;74.90
3416;DHT22;1721;51.238;9.562;2022-12-13T06:33:02;-5.90;74.40
3416;DHT22;1721;51.238;9.562;2022-12-13T06:35:27;-5.90;74.00
3416;DHT22;1721;51.238;9.562;2022-12-13T06:37:53;-5.90;73.80
3416;DHT22;1721;51.238;9.562;2022-12-13T06:40:18;-5.80;73.90
3416;DHT22;1721;51.238;9.562;2022-12-13T06:42:44;-5.80;73.90
3416;DHT22;1721;51.238;9.562;2022-12-13T06:45:10;-5.80;73.50
3416;DHT22;1721;51.238;9.562;2022-12-13T06:47:35;-5.80;73.50
3416;DHT22;1721;51.238;9.562;2022-12-13T06:50:01;-5.80;73.70
3416;DHT22;1721;51.238;9.562;2022-12-13T06:52:26;-5.80;73.60
3416;DHT22;1721;51.238;9.562;2022-12-13T06:54:52;-5.80;73.50
3416;DHT22;1721;51.238;9.562;2022-12-13T06:57:18;-5.90;73.50
3416;DHT22;1721;51.238;9.562;2022-12-13T06:59:44;-5.90;73.40
3416;DHT22;1721;51.238;9.562;2022-12-13T07:02:09;-5.90;73.20
3416;DHT22;1721;51.238;9.562;2022-12-13T07:04:35;-5.80;73.10
3416;DHT22;1721;51.238;9.562;2022-12-13T07:07:01;-5.90;72.70
3416;DHT22;1721;51.238;9.562;2022-12-13T07:09:27;-5.90;72.50
3416;DHT22;1721;51.238;9.562;2022-12-13T07:11:53;-5.90;72.60
3416;DHT22;1721;51.238;9.562;2022-12-13T07:14:19;-5.90;72.60
3416;DHT22;1721;51.238;9.562;2022-12-13T07:16:44;-5.90;72.60
3416;DHT22;1721;51.238;9.562;2022-12-13T07:19:10;-6.00;72.70
3416;DHT22;1721;51.238;9.562;2022-12-13T07:21:36;-6.00;73.30
3416;DHT22;1721;51.238;9.562;2022-12-13T07:24:03;-6.00;73.30
3416;DHT22;1721;51.238;9.562;2022-12-13T07:26:29;-6.00;73.30
3416;DHT22;1721;51.238;9.562;2022-12-13T07:28:55;-5.90;73.10
3416;DHT22;1721;51.238;9.562;2022-12-13T07:31:20;-6.00;72.90
3416;DHT22;1721;51.238;9.562;2022-12-13T07:33:46;-6.00;73.20
3416;DHT22;1721;51.238;9.562;2022-12-13T07:36:17;-5.90;73.00
3416;DHT22;1721;51.238;9.562;2022-12-13T07:38:49;-5.90;72.70
3416;DHT22;1721;51.238;9.562;2022-12-13T07:41:15;-5.90;72.40
3416;DHT22;1721;51.238;9.562;2022-12-13T07:43:40;-5.90;72.20
3416;DHT22;1721;51.238;9.562;2022-12-13T07:46:06;-5.90;72.40
3416;DHT22;1721;51.238;9.562;2022-12-13T07:48:32;-5.90;72.40
3416;DHT22;1721;51.238;9.562;2022-12-13T07:51:06;-5.90;72.40
3416;DHT22;1721;51.238;9.562;2022-12-13T07:53:32;-5.90;72.80
3416;DHT22;1721;51.238;9.562;2022-12-13T07:56:02;-5.90;73.20
3416;DHT22;1721;51.238;9.562;2022-12-13T07:58:28;-5.80;73.30
3416;DHT22;1721;51.238;9.562;2022-12-13T08:00:58;-5.80;73.30
3416;DHT22;1721;51.238;9.562;2022-12-13T08:03:24;-5.80;73.10
3416;DHT22;1721;51.238;9.562;2022-12-13T08:06:04;-5.70;73.30
3416;DHT22;1721;51.238;9.562;2022-12-13T08:08:30;-5.70;73.50
3416;DHT22;1721;51.238;9.562;2022-12-13T08:11:09;-5.70;73.70
3416;DHT22;1721;51.238;9.562;2022-12-13T08:13:35;-5.60;74.00
3416;DHT22;1721;51.238;9.562;2022-12-13T08:16:03;-5.50;74.10
3416;DHT22;1721;51.238;9.562;2022-12-13T08:18:29;-5.40;74.50
3416;DHT22;1721;51.238;9.562;2022-12-13T08:20:59;-5.50;74.90
3416;DHT22;1721;51.238;9.562;2022-12-13T08:23:25;-5.50;76.00
3416;DHT22;1721;51.238;9.562;2022-12-13T08:25:54;-5.40;75.80
3416;DHT22;1721;51.238;9.562;2022-12-13T08:28:20;-5.30;75.60
3416;DHT22;1721;51.238;9.562;2022-12-13T08:30:46;-5.20;75.40
3416;DHT22;1721;51.238;9.562;2022-12-13T08:33:12;-5.10;75.50
3416;DHT22;1721;51.238;9.562;2022-12-13T08:35:37;-5.00;75.20
3416;DHT22;1721;51.238;9.562;2022-12-13T08:38:03;-5.30;76.20
3416;DHT22;1721;51.238;9.562;2022-12-13T08:40:29;-5.40;77.60
3416;DHT22;1721;51.238;9.562;2022-12-13T08:42:54;-5.10;77.80
3416;DHT22;1721;51.238;9.562;2022-12-13T08:45:20;-5.10;77.70
3416;DHT22;1721;51.238;9.562;2022-12-13T08:47:48;-5.00;78.00
3416;DHT22;1721;51.238;9.562;2022-12-13T08:50:14;-4.80;77.90
3416;DHT22;1721;51.238;9.562;2022-12-13T08:52:39;-4.70;77.50
3416;DHT22;1721;51.238;9.562;2022-12-13T08:55:05;-4.80;77.90
3416;DHT22;1721;51.238;9.562;2022-12-13T08:57:31;-4.90;78.90
3416;DHT22;1721;51.238;9.562;2022-12-13T08:59:56;-4.70;78.80
3416;DHT22;1721;51.238;9.562;2022-12-13T09:02:22;-4.60;78.40
3416;DHT22;1721;51.238;9.562;2022-12-13T09:04:48;-4.50;78.70
3416;DHT22;1721;51.238;9.562;2022-12-13T09:07:13;-4.50;78.60
3416;DHT22;1721;51.238;9.562;2022-12-13T09:09:39;-4.20;77.90
3416;DHT22;1721;51.238;9.562;2022-12-13T09:12:05;-4.20;77.60
3416;DHT22;1721;51.238;9.562;2022-12-13T09:14:30;-4.20;77.70
3416;DHT22;1721;51.238;9.562;2022-12-13T09:16:56;-4.10;77.60
3416;DHT22;1721;51.238;9.562;2022-12-13T09:19:21;-4.20;78.00
3416;DHT22;1721;51.238;9.562;2022-12-13T09:21:49;-4.20;78.10
3416;DHT22;1721;51.238;9.562;2022-12-13T09:24:15;-4.30;78.80
3416;DHT22;1721;51.238;9.562;2022-12-13T09:26:40;-4.40;79.50
3416;DHT22;1721;51.238;9.562;2022-12-13T09:29:06;-4.30;79.60
3416;DHT22;1721;51.238;9.562;2022-12-13T09:31:32;-4.40;80.20
3416;DHT22;1721;51.238;9.562;2022-12-13T09:34:00;-4.50;80.20
3416;DHT22;1721;51.238;9.562;2022-12-13T09:36:25;-4.60;81.00
3416;DHT22;1721;51.238;9.562;2022-12-13T09:38:51;-4.80;81.80
3416;DHT22;1721;51.238;9.562;2022-12-13T09:41:22;-4.70;82.50
3416;DHT22;1721;51.238;9.562;2022-12-13T09:43:58;-4.50;82.30
3416;DHT22;1721;51.238;9.562;2022-12-13T09:46:29;-4.30;82.10
3416;DHT22;1721;51.238;9.562;2022-12-13T09:48:56;-4.10;82.00
3416;DHT22;1721;51.238;9.562;2022-12-13T09:51:23;-3.90;81.50
3416;DHT22;1721;51.238;9.562;2022-12-13T09:53:50;-3.90;81.50
3416;DHT22;1721;51.238;9.562;2022-12-13T09:56:19;-4.00;81.60
3416;DHT22;1721;51.238;9.562;2022-12-13T09:58:48;-4.00;81.80
3416;DHT22;1721;51.238;9.562;2022-12-13T10:01:15;-3.80;82.00
3416;DHT22;1721;51.238;9.562;2022-12-13T10:03:44;-3.80;81.90
3416;DHT22;1721;51.238;9.562;2022-12-13T10:06:22;-3.70;81.70
3416;DHT22;1721;51.238;9.562;2022-12-13T10:08:53;-3.50;81.40
3416;DHT22;1721;51.238;9.562;2022-12-13T10:11:21;-3.50;81.50
3416;DHT22;1721;51.238;9.562;2022-12-13T10:13:58;-3.40;81.30
3416;DHT22;1721;51.238;9.562;2022-12-13T10:18:56;-3.30;81.50
3416;DHT22;1721;51.238;9.562;2022-12-13T10:21:28;-3.20;81.50
3416;DHT22;1721;51.238;9.562;2022-12-13T10:24:25;-3.20;81.80
3416;DHT22;1721;51.238;9.562;2022-12-13T10:26:52;-3.20;81.80
3416;DHT22;1721;51.238;9.562;2022-12-13T10:29:19;-3.10;81.70
3416;DHT22;1721;51.238;9.562;2022-12-13T10:31:48;-3.10;81.60
3416;DHT22;1721;51.238;9.562;2022-12-13T10:34:34;-3.20;81.70
3416;DHT22;1721;51.238;9.562;2022-12-13T10:39:48;-3.00;81.90
3416;DHT22;1721;51.238;9.562;2022-12-13T10:42:17;-2.90;81.70
3416;DHT22;1721;51.238;9.562;2022-12-13T10:44:43;-2.80;81.80
3416;DHT22;1721;51.238;9.562;2022-12-13T10:52:33;-2.90;82.90
3416;DHT22;1721;51.238;9.562;2022-12-13T10:55:02;-2.60;82.90
3416;DHT22;1721;51.238;9.562;2022-12-13T10:57:30;-2.40;82.50
3416;DHT22;1721;51.238;9.562;2022-12-13T10:59:56;-2.30;82.40
3416;DHT22;1721;51.238;9.562;2022-12-13T11:02:38;-2.30;82.00
3416;DHT22;1721;51.238;9.562;2022-12-13T11:07:48;-2.20;82.00
3416;DHT22;1721;51.238;9.562;2022-12-13T11:10:27;-2.30;82.30
3416;DHT22;1721;51.238;9.562;2022-12-13T11:13:01;-2.50;83.00
3416;DHT22;1721;51.238;9.562;2022-12-13T11:15:28;-2.60;83.90
3416;DHT22;1721;51.238;9.562;2022-12-13T11:18:04;-2.70;84.60
3416;DHT22;1721;51.238;9.562;2022-12-13T11:20:34;-2.60;84.90
3416;DHT22;1721;51.238;9.562;2022-12-13T11:25:34;-2.60;84.90
3416;DHT22;1721;51.238;9.562;2022-12-13T11:28:22;-2.50;84.80
3416;DHT22;1721;51.238;9.562;2022-12-13T11:41:51;-2.50;84.40
3416;DHT22;1721;51.238;9.562;2022-12-13T11:47:26;-2.70;85.10
3416;DHT22;1721;51.238;9.562;2022-12-13T11:49:53;-2.80;85.10
3416;DHT22;1721;51.238;9.562;2022-12-13T11:52:26;-2.90;85.80
3416;DHT22;1721;51.238;9.562;2022-12-13T11:54:58;-2.60;85.80
3416;DHT22;1721;51.238;9.562;2022-12-13T12:02:51;-2.30;85.00
3416;DHT22;1721;51.238;9.562;2022-12-13T12:05:31;-2.40;85.10
3416;DHT22;1721;51.238;9.562;2022-12-13T12:08:11;-2.50;85.30
3416;DHT22;1721;51.238;9.562;2022-12-13T12:10:42;-2.50;85.50
3416;DHT22;1721;51.238;9.562;2022-12-13T12:13:38;-2.30;85.60
3416;DHT22;1721;51.238;9.562;2022-12-13T12:16:19;-2.20;85.60
3416;DHT22;1721;51.238;9.562;2022-12-13T12:18:49;-2.00;85.30
3416;DHT22;1721;51.238;9.562;2022-12-13T12:24:35;-1.70;84.80
3416;DHT22;1721;51.238;9.562;2022-12-13T12:29:55;-1.70;84.30
3416;DHT22;1721;51.238;9.562;2022-12-13T12:43:35;-1.80;84.90
3416;DHT22;1721;51.238;9.562;2022-12-13T12:46:32;-1.70;85.00
3416;DHT22;1721;51.238;9.562;2022-12-13T12:49:22;-1.70;85.00
3416;DHT22;1721;51.238;9.562;2022-12-13T12:57:22;-1.70;84.70
3416;DHT22;1721;51.238;9.562;2022-12-13T13:00:16;-1.70;85.00
3416;DHT22;1721;51.238;9.562;2022-12-13T13:05:22;-1.60;84.70
3416;DHT22;1721;51.238;9.562;2022-12-13T13:10:40;-1.80;85.40
3416;DHT22;1721;51.238;9.562;2022-12-13T13:16:04;-1.80;85.60
3416;DHT22;1721;51.238;9.562;2022-12-13T13:18:57;-1.80;85.70
3416;DHT22;1721;51.238;9.562;2022-12-13T13:26:38;-1.80;85.40
3416;DHT22;1721;51.238;9.562;2022-12-13T13:29:20;-1.90;85.60
3416;DHT22;1721;51.238;9.562;2022-12-13T13:34:36;-1.90;85.70
3416;DHT22;1721;51.238;9.562;2022-12-13T13:37:04;-1.90;85.30
3416;DHT22;1721;51.238;9.562;2022-12-13T13:47:32;-1.90;85.60
3416;DHT22;1721;51.238;9.562;2022-12-13T13:52:52;-1.80;85.20
3416;DHT22;1721;51.238;9.562;2022-12-13T13:55:46;-1.70;85.00
3416;DHT22;1721;51.238;9.562;2022-12-13T14:12:11;-2.20;84.70
3416;DHT22;1721;51.238;9.562;2022-12-13T14:30:56;-2.30;83.90
3416;DHT22;1721;51.238;9.562;2022-12-13T14:33:23;-2.40;83.50
3416;DHT22;1721;51.238;9.562;2022-12-13T14:35:52;-2.40;83.20
3416;DHT22;1721;51.238;9.562;2022-12-13T14:38:23;-2.40;82.80
3416;DHT22;1721;51.238;9.562;2022-12-13T14:40:52;-2.30;82.90
3416;DHT22;1721;51.238;9.562;2022-12-13T14:43:29;-2.30;83.10
3416;DHT22;1721;51.238;9.562;2022-12-13T14:46:03;-2.30;83.50
3416;DHT22;1721;51.238;9.562;2022-12-13T14:48:45;-2.30;82.60
3416;DHT22;1721;51.238;9.562;2022-12-13T14:53:57;-2.50;81.60
3416;DHT22;1721;51.238;9.562;2022-12-13T14:56:23;-2.60;81.50
3416;DHT22;1721;51.238;9.562;2022-12-13T14:59:00;-2.60;81.40
3416;DHT22;1721;51.238;9.562;2022-12-13T15:01:34;-2.60;81.10
3416;DHT22;1721;51.238;9.562;2022-12-13T15:04:24;-2.70;80.50
3416;DHT22;1721;51.238;9.562;2022-12-13T15:06:58;-2.80;80.20
3416;DHT22;1721;51.238;9.562;2022-12-13T15:09:24;-2.90;80.00
3416;DHT22;1721;51.238;9.562;2022-12-13T15:11:51;-2.90;80.10
3416;DHT22;1721;51.238;9.562;2022-12-13T15:14:19;-3.00;80.10
3416;DHT22;1721;51.238;9.562;2022-12-13T15:16:48;-3.00;80.10
3416;DHT22;1721;51.238;9.562;2022-12-13T15:19:17;-3.10;80.00
3416;DHT22;1721;51.238;9.562;2022-12-13T15:22:04;-3.10;79.60
3416;DHT22;1721;51.238;9.562;2022-12-13T15:24:33;-3.20;79.50
3416;DHT22;1721;51.238;9.562;2022-12-13T15:27:01;-3.20;79.60
3416;DHT22;1721;51.238;9.562;2022-12-13T15:29:32;-3.20;80.00
3416;DHT22;1721;51.238;9.562;2022-12-13T15:32:00;-3.20;79.80
3416;DHT22;1721;51.238;9.562;2022-12-13T15:36:59;-3.20;79.70
3416;DHT22;1721;51.238;9.562;2022-12-13T15:39:25;-3.20;80.00
3416;DHT22;1721;51.238;9.562;2022-12-13T15:41:54;-3.20;80.20
3416;DHT22;1721;51.238;9.562;2022-12-13T15:44:23;-3.20;80.20
3416;DHT22;1721;51.238;9.562;2022-12-13T15:46:51;-3.20;80.20
3416;DHT22;1721;51.238;9.562;2022-12-13T15:49:59;-3.10;80.40
3416;DHT22;1721;51.238;9.562;2022-12-13T16:03:10;-3.10;80.30
3416;DHT22;1721;51.238;9.562;2022-12-13T16:05:40;-3.00;80.40
3416;DHT22;1721;51.238;9.562;2022-12-13T16:08:29;-3.10;80.20
3416;DHT22;1721;51.238;9.562;2022-12-13T16:10:55;-3.10;80.20
3416;DHT22;1721;51.238;9.562;2022-12-13T16:13:27;-3.10;80.90
3416;DHT22;1721;51.238;9.562;2022-12-13T16:15:55;-3.10;81.50
3416;DHT22;1721;51.238;9.562;2022-12-13T16:18:24;-3.00;81.60
3416;DHT22;1721;51.238;9.562;2022-12-13T16:20:53;-3.00;82.00
3416;DHT22;1721;51.238;9.562;2022-12-13T16:23:19;-3.00;81.90
3416;DHT22;1721;51.238;9.562;2022-12-13T16:25:44;-3.10;81.50
3416;DHT22;1721;51.238;9.562;2022-12-13T16:28:12;-3.10;81.00
3416;DHT22;1721;51.238;9.562;2022-12-13T16:33:22;-3.20;80.20
3416;DHT22;1721;51.238;9.562;2022-12-13T16:35:48;-3.20;79.80
3416;DHT22;1721;51.238;9.562;2022-12-13T16:38:15;-3.30;79.20
3416;DHT22;1721;51.238;9.562;2022-12-13T16:40:41;-3.40;78.80
3416;DHT22;1721;51.238;9.562;2022-12-13T16:43:21;-3.60;78.30
3416;DHT22;1721;51.238;9.562;2022-12-13T16:45:49;-3.80;78.30
3416;DHT22;1721;51.238;9.562;2022-12-13T16:48:16;-3.90;79.50
3416;DHT22;1721;51.238;9.562;2022-12-13T16:50:45;-3.90;79.20
3416;DHT22;1721;51.238;9.562;2022-12-13T16:53:12;-4.20;79.40
3416;DHT22;1721;51.238;9.562;2022-12-13T16:55:38;-4.10;79.60
3416;DHT22;1721;51.238;9.562;2022-12-13T16:58:09;-4.10;79.40
3416;DHT22;1721;51.238;9.562;2022-12-13T17:00:36;-4.00;79.20
3416;DHT22;1721;51.238;9.562;2022-12-13T17:03:03;-4.00;79.00
3416;DHT22;1721;51.238;9.562;2022-12-13T17:05:30;-4.00;78.90
3416;DHT22;1721;51.238;9.562;2022-12-13T17:07:56;-4.00;79.00
3416;DHT22;1721;51.238;9.562;2022-12-13T17:10:22;-4.00;79.50
3416;DHT22;1721;51.238;9.562;2022-12-13T17:12:48;-4.00;78.80
3416;DHT22;1721;51.238;9.562;2022-12-13T17:15:14;-3.90;78.60
3416;DHT22;1721;51.238;9.562;2022-12-13T17:17:42;-3.90;78.50
3416;DHT22;1721;51.238;9.562;2022-12-13T17:20:09;-3.90;78.60
3416;DHT22;1721;51.238;9.562;2022-12-13T17:22:36;-4.00;78.50
3416;DHT22;1721;51.238;9.562;2022-12-13T17:25:02;-4.00;78.70
3416;DHT22;1721;51.238;9.562;2022-12-13T17:27:29;-4.00;78.80
3416;DHT22;1721;51.238;9.562;2022-12-13T17:29:56;-4.00;78.60
3416;DHT22;1721;51.238;9.562;2022-12-13T17:32:21;-4.00;78.80
3416;DHT22;1721;51.238;9.562;2022-12-13T17:34:47;-4.00;79.00
3416;DHT22;1721;51.238;9.562;2022-12-13T17:37:12;-4.00;79.00
3416;DHT22;1721;51.238;9.562;2022-12-13T17:39:38;-4.00;79.00
3416;DHT22;1721;51.238;9.562;2022-12-13T17:42:03;-3.90;79.10
3416;DHT22;1721;51.238;9.562;2022-12-13T17:44:29;-3.90;78.80
3416;DHT22;1721;51.238;9.562;2022-12-13T17:46:55;-3.90;78.60
3416;DHT22;1721;51.238;9.562;2022-12-13T17:49:20;-3.80;78.60
3416;DHT22;1721;51.238;9.562;2022-12-13T17:51:46;-3.80;78.60
3416;DHT22;1721;51.238;9.562;2022-12-13T17:54:11;-3.80;78.50
3416;DHT22;1721;51.238;9.562;2022-12-13T17:56:37;-3.80;78.40
3416;DHT22;1721;51.238;9.562;2022-12-13T17:59:04;-3.80;78.30
3416;DHT22;1721;51.238;9.562;2022-12-13T18:01:30;-3.90;78.10
3416;DHT22;1721;51.238;9.562;2022-12-13T18:03:56;-3.90;78.30
3416;DHT22;1721;51.238;9.562;2022-12-13T18:06:23;-3.80;78.60
3416;DHT22;1721;51.238;9.562;2022-12-13T18:08:49;-3.80;78.70
3416;DHT22;1721;51.238;9.562;2022-12-13T18:11:16;-3.70;78.70
3416;DHT22;1721;51.238;9.562;2022-12-13T18:13:42;-3.70;78.60
3416;DHT22;1721;51.238;9.562;2022-12-13T18:16:10;-3.60;78.50
3416;DHT22;1721;51.238;9.562;2022-12-13T18:18:37;-3.70;78.40
3416;DHT22;1721;51.238;9.562;2022-12-13T18:21:08;-3.70;78.60
3416;DHT22;1721;51.238;9.562;2022-12-13T18:23:34;-3.90;79.40
3416;DHT22;1721;51.238;9.562;2022-12-13T18:26:06;-3.90;80.10
3416;DHT22;1721;51.238;9.562;2022-12-13T18:28:32;-3.90;80.20
3416;DHT22;1721;51.238;9.562;2022-12-13T18:31:01;-3.90;80.20
3416;DHT22;1721;51.238;9.562;2022-12-13T18:33:27;-3.80;80.10
3416;DHT22;1721;51.238;9.562;2022-12-13T18:35:53;-3.70;79.90
3416;DHT22;1721;51.238;9.562;2022-12-13T18:38:19;-3.60;79.70
3416;DHT22;1721;51.238;9.562;2022-12-13T18:40:45;-3.60;79.60
3416;DHT22;1721;51.238;9.562;2022-12-13T18:43:11;-3.50;79.30